createdAt,value
2023-02-08T00:01:11.117Z,10.10
2023-02-08T00:03:39.088Z,14.60
2023-02-08T00:06:08.157Z,12.30
2023-02-08T00:08:38.092Z,14.18
2023-02-08T00:11:07.057Z,9.20
2023-02-08T00:13:35.226Z,10.57
2023-02-08T00:16:02.998Z,11.20
2023-02-08T00:18:31.032Z,13.43
2023-02-08T00:20:58.823Z,17.17
2023-02-08T00:23:27.244Z,12.18
2023-02-08T00:25:56.380Z,15.60
2023-02-08T00:28:24.375Z,12.73
2023-02-08T00:30:53.425Z,13.15
2023-02-08T00:33:21.278Z,10.27
2023-02-08T00:35:49.118Z,12.80
2023-02-08T00:38:16.908Z,10.60
2023-02-08T00:40:44.642Z,14.55
2023-02-08T00:43:13.783Z,13.63
2023-02-08T00:45:41.550Z,11.77
2023-02-08T00:48:09.264Z,12.15
2023-02-08T00:50:37.033Z,14.75
2023-02-08T00:53:05.197Z,13.02
2023-02-08T00:55:33.036Z,9.18
2023-02-08T00:58:00.881Z,12.30
2023-02-08T01:00:29.997Z,12.88
2023-02-08T01:02:57.818Z,10.30
2023-02-08T01:05:25.628Z,9.57
2023-02-08T01:07:53.401Z,14.02
2023-02-08T01:10:21.105Z,12.45
2023-02-08T01:12:48.856Z,13.48
2023-02-08T01:15:16.562Z,14.80
2023-02-08T01:17:45.687Z,10.45
2023-02-08T01:20:13.445Z,10.57
2023-02-08T01:22:41.588Z,11.80
2023-02-08T01:25:09.704Z,13.85
2023-02-08T01:27:37.563Z,15.93
2023-02-08T01:30:05.871Z,12.63
2023-02-08T01:32:33.657Z,15.05
2023-02-08T01:35:02.828Z,7.22
2023-02-08T01:37:30.611Z,13.10
2023-02-08T01:39:58.320Z,13.05
2023-02-08T01:42:26.237Z,12.25
2023-02-08T01:45:28.864Z,7.18
2023-02-08T01:48:03.953Z,12.32
2023-02-08T01:50:38.139Z,10.65
2023-02-08T01:53:06.357Z,14.55
2023-02-08T01:55:37.943Z,13.30
2023-02-08T01:58:10.104Z,13.32
2023-02-08T02:00:38.147Z,11.35
2023-02-08T02:03:07.097Z,13.00
2023-02-08T02:05:42.470Z,17.65
2023-02-08T02:08:12.059Z,14.50
2023-02-08T02:10:41.730Z,18.98
2023-02-08T02:13:13.568Z,12.35
2023-02-08T02:15:41.756Z,11.10
2023-02-08T02:18:10.010Z,13.75
2023-02-08T02:20:49.099Z,12.82
2023-02-08T02:23:49.314Z,18.33
2023-02-08T02:26:52.810Z,17.50
2023-02-08T02:29:57.804Z,10.87
2023-02-08T02:32:39.437Z,13.23
2023-02-08T02:35:14.789Z,19.65
2023-02-08T02:37:55.081Z,21.15
2023-02-08T02:40:30.519Z,33.35
2023-02-08T02:43:24.767Z,23.85
2023-02-08T02:46:01.710Z,23.55
2023-02-08T02:48:40.003Z,21.27
2023-02-08T02:51:11.118Z,16.08
2023-02-08T02:53:46.001Z,20.48
2023-02-08T02:56:18.501Z,23.27
2023-02-08T02:58:46.647Z,26.67
2023-02-08T03:01:14.731Z,28.70
2023-02-08T03:03:43.823Z,20.92
2023-02-08T03:06:15.912Z,22.75
2023-02-08T03:09:02.558Z,19.90
2023-02-08T03:11:33.996Z,17.83
2023-02-08T03:14:20.535Z,20.70
2023-02-08T03:17:03.914Z,16.73
2023-02-08T03:19:40.066Z,22.02
2023-02-08T03:22:14.374Z,25.80
2023-02-08T03:24:50.700Z,24.25
2023-02-08T03:27:28.885Z,19.75
2023-02-08T03:30:01.849Z,19.10
2023-02-08T03:32:39.952Z,20.98
2023-02-08T03:35:16.186Z,29.17
2023-02-08T03:37:48.096Z,18.17
2023-02-08T03:40:21.733Z,14.70
2023-02-08T03:42:52.626Z,17.77
2023-02-08T03:45:24.951Z,23.83
2023-02-08T03:47:57.985Z,21.88
2023-02-08T03:50:32.192Z,18.45
2023-02-08T03:52:59.952Z,14.57
2023-02-08T03:55:30.735Z,18.98
2023-02-08T03:58:04.668Z,15.70
2023-02-08T04:00:37.836Z,15.88
2023-02-08T04:03:11.959Z,18.55
2023-02-08T04:05:41.440Z,15.95
2023-02-08T04:08:09.423Z,14.65
2023-02-08T04:10:37.300Z,11.90
2023-02-08T04:13:05.536Z,13.75
2023-02-08T04:15:33.366Z,16.58
2023-02-08T04:18:01.196Z,16.75
2023-02-08T04:20:29.052Z,23.83
2023-02-08T04:22:58.284Z,19.70
2023-02-08T04:25:26.263Z,25.70
2023-02-08T04:27:54.590Z,17.25
2023-02-08T04:30:22.400Z,23.50
2023-02-08T04:32:50.158Z,23.90
2023-02-08T04:35:18.053Z,22.45
2023-02-08T04:37:45.795Z,15.70
2023-02-08T04:40:14.974Z,16.27
2023-02-08T04:42:42.693Z,19.38
2023-02-08T04:45:11.162Z,17.30
2023-02-08T04:47:39.007Z,18.52
2023-02-08T04:50:07.553Z,17.40
2023-02-08T04:52:35.253Z,16.48
2023-02-08T04:55:03.055Z,17.02
2023-02-08T04:57:32.597Z,15.45
2023-02-08T05:00:00.658Z,18.67
2023-02-08T05:02:28.657Z,20.02
2023-02-08T05:04:56.427Z,14.82
2023-02-08T05:07:24.212Z,11.85
2023-02-08T05:09:52.020Z,18.10
2023-02-08T05:12:19.793Z,20.27
2023-02-08T05:14:48.999Z,17.98
2023-02-08T05:17:16.731Z,13.98
2023-02-08T05:19:44.564Z,17.65
2023-02-08T05:22:12.400Z,9.30
2023-02-08T05:24:40.171Z,15.10
2023-02-08T05:27:07.898Z,12.25
2023-02-08T05:29:35.626Z,10.50
2023-02-08T05:32:04.986Z,9.88
2023-02-08T05:34:32.805Z,13.95
2023-02-08T05:37:00.872Z,12.32
2023-02-08T05:39:28.771Z,13.98
2023-02-08T05:41:56.603Z,13.30
2023-02-08T05:44:24.359Z,12.07
2023-02-08T05:46:52.178Z,11.18
2023-02-08T05:49:21.316Z,12.00
2023-02-08T05:51:50.310Z,11.27
2023-02-08T05:54:18.792Z,14.15
2023-02-08T05:56:46.580Z,24.73
2023-02-08T05:59:14.384Z,17.08
2023-02-08T06:01:42.225Z,14.60
2023-02-08T06:04:10.025Z,14.15
2023-02-08T06:06:39.138Z,10.10
2023-02-08T06:09:06.887Z,14.18
2023-02-08T06:11:36.107Z,13.15
2023-02-08T06:14:04.061Z,17.38
2023-02-08T06:16:32.246Z,16.08
2023-02-08T06:19:00.166Z,15.95
2023-02-08T06:21:28.207Z,20.13
2023-02-08T06:23:57.270Z,28.65
2023-02-08T06:26:25.092Z,31.65
2023-02-08T06:28:52.959Z,25.15
2023-02-08T06:31:20.679Z,21.00
2023-02-08T06:33:48.488Z,18.35
2023-02-08T06:36:16.352Z,22.17
2023-02-08T06:38:44.280Z,12.43
2023-02-08T06:41:13.470Z,15.50
2023-02-08T06:43:41.379Z,13.48
2023-02-08T06:46:09.553Z,22.05
2023-02-08T06:48:37.851Z,18.58
2023-02-08T06:51:05.933Z,16.77
2023-02-08T06:53:33.658Z,11.57
2023-02-08T06:56:01.487Z,14.63
2023-02-08T06:58:31.266Z,18.50
2023-02-08T07:00:58.988Z,17.33
2023-02-08T07:03:26.726Z,21.80
2023-02-08T07:06:04.579Z,20.73
2023-02-08T07:08:33.182Z,14.75
2023-02-08T07:11:00.941Z,26.77
2023-02-08T07:13:30.080Z,20.33
2023-02-08T07:15:57.877Z,18.92
2023-02-08T07:18:25.668Z,19.10
2023-02-08T07:20:53.511Z,18.00
2023-02-08T07:23:21.255Z,19.27
2023-02-08T07:25:58.261Z,15.00
2023-02-08T07:28:26.646Z,22.52
2023-02-08T07:30:56.001Z,16.80
2023-02-08T07:33:24.959Z,14.95
2023-02-08T07:35:53.037Z,19.13
2023-02-08T07:38:21.057Z,19.20
2023-02-08T07:40:48.894Z,22.17
2023-02-08T07:43:16.924Z,18.75
2023-02-08T07:45:44.730Z,27.75
2023-02-08T07:48:13.835Z,15.05
2023-02-08T07:50:41.760Z,15.68
2023-02-08T07:53:09.669Z,22.13
2023-02-08T07:55:37.364Z,19.73
2023-02-08T07:58:05.153Z,26.35
2023-02-08T08:00:32.957Z,24.77
2023-02-08T08:03:01.442Z,27.92
2023-02-08T08:05:30.627Z,19.02
2023-02-08T08:07:58.409Z,21.20
2023-02-08T08:10:26.270Z,22.25
2023-02-08T08:12:54.120Z,23.23
2023-02-08T08:15:21.909Z,18.58
2023-02-08T08:17:49.663Z,26.40
2023-02-08T08:20:17.966Z,19.38
2023-02-08T08:22:47.320Z,17.23
2023-02-08T08:25:15.432Z,20.20
2023-02-08T08:27:43.207Z,15.13
2023-02-08T08:30:13.212Z,14.63
2023-02-08T08:32:40.999Z,19.65
2023-02-08T08:35:09.266Z,13.70
2023-02-08T08:37:37.953Z,20.02
2023-02-08T08:40:08.494Z,13.45
2023-02-08T08:42:37.259Z,17.60
2023-02-08T08:45:05.281Z,16.50
2023-02-08T08:47:33.780Z,18.02
2023-02-08T08:50:02.072Z,18.27
2023-02-08T08:52:30.254Z,23.17
2023-02-08T08:54:58.011Z,22.00
2023-02-08T08:57:27.740Z,17.00
2023-02-08T08:59:55.868Z,15.25
2023-02-08T09:02:23.942Z,22.95
2023-02-08T09:04:51.967Z,17.92
2023-02-08T09:07:19.889Z,29.40
2023-02-08T09:09:48.660Z,22.40
2023-02-08T09:12:16.871Z,20.02
2023-02-08T09:14:45.987Z,18.90
2023-02-08T09:17:13.832Z,26.30
2023-02-08T09:19:42.515Z,28.50
2023-02-08T09:22:10.359Z,17.60
2023-02-08T09:24:38.311Z,18.27
2023-02-08T09:27:06.076Z,14.38
2023-02-08T09:29:34.333Z,19.35
2023-02-08T09:32:03.648Z,21.13
2023-02-08T09:34:31.388Z,18.83
2023-02-08T09:36:59.144Z,15.82
2023-02-08T09:39:27.256Z,24.35
2023-02-08T09:42:16.593Z,16.88
2023-02-08T09:44:56.699Z,17.08
2023-02-08T09:47:31.219Z,25.95
2023-02-08T09:50:03.792Z,23.25
2023-02-08T09:52:38.442Z,25.53
2023-02-08T09:55:21.899Z,21.73
2023-02-08T09:57:52.723Z,15.48
2023-02-08T10:00:26.741Z,21.38
2023-02-08T10:02:59.737Z,19.90
2023-02-08T10:05:29.667Z,22.75
2023-02-08T10:07:58.582Z,22.40
2023-02-08T10:10:42.764Z,15.43
2023-02-08T10:13:40.853Z,13.88
2023-02-08T10:16:19.478Z,17.50
2023-02-08T10:18:53.442Z,18.83
2023-02-08T10:21:35.253Z,13.35
2023-02-08T10:24:23.557Z,15.68
2023-02-08T10:27:03.015Z,21.20
2023-02-08T10:29:51.317Z,15.13
2023-02-08T10:32:35.267Z,14.18
2023-02-08T10:35:07.480Z,21.40
2023-02-08T10:37:38.718Z,18.55
2023-02-08T10:40:21.996Z,19.75
2023-02-08T10:42:57.638Z,22.38
2023-02-08T10:45:30.547Z,13.35
2023-02-08T10:48:02.848Z,14.98
2023-02-08T10:50:36.759Z,22.83
2023-02-08T10:53:04.833Z,19.42
2023-02-08T10:55:36.639Z,19.00
2023-02-08T10:58:07.638Z,23.55
2023-02-08T11:00:39.230Z,24.67
2023-02-08T11:03:18.930Z,20.65
2023-02-08T11:05:48.327Z,28.92
2023-02-08T11:08:19.830Z,18.08
2023-02-08T11:10:58.375Z,20.80
2023-02-08T11:13:34.691Z,16.23
2023-02-08T11:16:06.282Z,16.70
2023-02-08T11:18:37.076Z,23.27
2023-02-08T11:21:10.588Z,26.88
2023-02-08T11:26:18.444Z,17.33
2023-02-08T11:28:59.441Z,17.25
2023-02-08T11:31:27.664Z,19.38
2023-02-08T11:34:04.224Z,16.13
2023-02-08T11:36:35.602Z,16.42
2023-02-08T11:39:15.928Z,16.00
2023-02-08T11:41:45.719Z,13.35
2023-02-08T11:44:23.546Z,16.48
2023-02-08T11:46:52.966Z,19.58
2023-02-08T11:49:25.543Z,23.98
2023-02-08T11:51:55.174Z,19.20
2023-02-08T11:54:39.323Z,17.08
2023-02-08T11:57:15.588Z,17.25
2023-02-08T11:59:43.374Z,13.88
2023-02-08T12:02:35.660Z,14.45
2023-02-08T12:05:04.688Z,17.33
2023-02-08T12:07:45.487Z,17.35
2023-02-08T12:10:29.633Z,14.52
2023-02-08T12:13:08.250Z,19.52
2023-02-08T12:15:58.261Z,21.00
2023-02-08T12:18:50.361Z,21.33
2023-02-08T12:21:22.891Z,21.90
2023-02-08T12:23:57.703Z,22.33
2023-02-08T12:26:51.438Z,16.83
2023-02-08T12:29:47.242Z,19.02
2023-02-08T12:32:42.714Z,15.07
2023-02-08T12:35:45.844Z,17.83
2023-02-08T12:38:52.422Z,15.75
2023-02-08T12:41:23.996Z,14.10
2023-02-08T12:44:02.381Z,13.32
2023-02-08T12:46:50.062Z,16.08
2023-02-08T12:49:31.455Z,15.05
2023-02-08T12:52:08.339Z,11.85
2023-02-08T12:54:42.526Z,18.52
2023-02-08T12:57:15.622Z,15.95
2023-02-08T12:59:47.745Z,20.42
2023-02-08T13:02:19.138Z,17.42
2023-02-08T13:04:50.724Z,24.27
2023-02-08T13:07:24.559Z,15.10
2023-02-08T13:10:02.595Z,14.85
2023-02-08T13:12:35.127Z,15.77
2023-02-08T13:15:24.772Z,12.95
2023-02-08T13:18:00.566Z,15.52
2023-02-08T13:20:39.050Z,13.95
2023-02-08T13:23:16.544Z,11.73
2023-02-08T13:25:45.626Z,10.13
2023-02-08T13:28:20.834Z,12.68
2023-02-08T13:30:56.730Z,18.88
2023-02-08T13:33:32.858Z,11.43
2023-02-08T13:36:00.959Z,10.57
2023-02-08T13:38:32.189Z,16.95
2023-02-08T13:41:06.267Z,18.73
2023-02-08T13:43:40.447Z,15.75
2023-02-08T13:46:09.552Z,13.45
2023-02-08T13:48:47.009Z,12.93
2023-02-08T13:51:51.873Z,13.15
2023-02-08T13:54:19.761Z,11.43
2023-02-08T13:56:49.559Z,11.70
2023-02-08T13:59:37.009Z,12.25
2023-02-08T14:02:23.103Z,10.73
2023-02-08T14:04:52.629Z,11.40
2023-02-08T14:07:30.083Z,15.25
2023-02-08T14:10:09.649Z,16.33
2023-02-08T14:12:43.633Z,8.70
2023-02-08T14:15:33.298Z,13.85
2023-02-08T14:18:02.728Z,6.65
2023-02-08T14:20:34.899Z,10.75
2023-02-08T14:23:04.541Z,11.25
2023-02-08T14:25:43.091Z,9.23
2023-02-08T14:28:26.532Z,12.90
2023-02-08T14:30:59.030Z,10.63
2023-02-08T14:33:29.702Z,12.27
2023-02-08T14:35:59.257Z,10.95
2023-02-08T14:38:55.316Z,11.00
2023-02-08T14:42:03.771Z,6.90
2023-02-08T14:45:01.806Z,10.88
2023-02-08T14:47:57.917Z,9.80
2023-02-08T14:50:38.530Z,11.73
2023-02-08T14:53:17.416Z,10.73
2023-02-08T14:55:51.423Z,16.02
2023-02-08T14:58:28.839Z,12.68
2023-02-08T15:00:59.393Z,11.50
2023-02-08T15:03:32.511Z,10.77
2023-02-08T15:06:34.064Z,12.75
2023-02-08T15:09:02.342Z,9.27
2023-02-08T15:11:32.924Z,13.07
2023-02-08T15:14:04.045Z,11.70
2023-02-08T15:16:36.113Z,16.25
2023-02-08T15:19:06.981Z,10.88
2023-02-08T15:21:37.267Z,13.57
2023-02-08T15:24:13.472Z,9.80
2023-02-08T15:26:45.870Z,13.43
2023-02-08T15:29:24.625Z,13.45
2023-02-08T15:31:54.998Z,9.10
2023-02-08T15:34:26.253Z,15.90
2023-02-08T15:36:56.183Z,19.35
2023-02-08T15:39:34.776Z,15.38
2023-02-08T15:42:03.037Z,13.45
2023-02-08T15:44:32.988Z,11.10
2023-02-08T15:47:03.941Z,13.68
2023-02-08T15:49:39.055Z,9.07
2023-02-08T15:52:08.395Z,12.63
2023-02-08T15:54:36.224Z,9.52
2023-02-08T15:57:07.386Z,10.80
2023-02-08T15:59:39.184Z,9.88
2023-02-08T16:02:23.294Z,15.30
2023-02-08T16:04:52.468Z,10.20
2023-02-08T16:07:26.881Z,10.85
2023-02-08T16:09:55.757Z,14.90
2023-02-08T16:12:25.766Z,9.52
2023-02-08T16:14:56.490Z,9.85
2023-02-08T16:17:38.007Z,16.15
2023-02-08T16:20:30.101Z,12.20
2023-02-08T16:23:01.336Z,13.85
2023-02-08T16:25:45.417Z,12.57
2023-02-08T16:28:26.804Z,13.52
2023-02-08T16:30:55.263Z,11.02
2023-02-08T16:33:23.234Z,15.82
2023-02-08T16:35:52.959Z,10.18
2023-02-08T16:38:23.456Z,12.70
2023-02-08T16:40:53.372Z,13.73
2023-02-08T16:43:24.437Z,13.32
2023-02-08T16:46:22.081Z,11.57
2023-02-08T16:48:51.691Z,9.10
2023-02-08T16:51:22.959Z,8.95
2023-02-08T16:53:53.027Z,11.65
2023-02-08T16:56:21.011Z,20.95
2023-02-08T16:58:48.778Z,15.43
2023-02-08T17:01:17.009Z,14.35
2023-02-08T17:03:44.824Z,22.50
2023-02-08T17:06:27.352Z,24.52
2023-02-08T17:08:55.131Z,15.00
2023-02-08T17:11:23.379Z,21.50
2023-02-08T17:13:52.363Z,14.55
2023-02-08T17:16:22.706Z,22.33
2023-02-08T17:18:51.389Z,18.67
2023-02-08T17:21:19.397Z,14.70
2023-02-08T17:23:48.796Z,15.15
2023-02-08T17:26:19.114Z,16.50
2023-02-08T17:28:47.025Z,15.07
2023-02-08T17:31:15.810Z,16.55
2023-02-08T17:33:44.040Z,17.92
2023-02-08T17:36:14.244Z,19.48
2023-02-08T17:38:42.917Z,18.70
2023-02-08T17:41:15.760Z,13.48
2023-02-08T17:43:43.493Z,13.93
2023-02-08T17:46:11.919Z,16.00
2023-02-08T17:48:39.676Z,14.02
2023-02-08T17:51:11.116Z,13.32
2023-02-08T17:53:40.830Z,14.63
2023-02-08T17:56:09.608Z,15.98
2023-02-08T17:58:38.768Z,13.82
2023-02-08T18:01:07.120Z,13.63
2023-02-08T18:03:35.164Z,12.52
2023-02-08T18:06:03.591Z,15.85
2023-02-08T18:08:31.287Z,13.95
2023-02-08T18:11:04.210Z,15.60
2023-02-08T18:13:31.973Z,12.73
2023-02-08T18:16:07.877Z,9.40
2023-02-08T18:18:35.665Z,15.20
2023-02-08T18:21:03.402Z,9.93
2023-02-08T18:23:31.111Z,8.95
2023-02-08T18:26:05.643Z,20.10
2023-02-08T18:28:33.420Z,19.60
2023-02-08T18:31:09.059Z,10.85
2023-02-08T18:33:37.794Z,12.10
2023-02-08T18:36:06.987Z,15.40
2023-02-08T18:38:35.005Z,15.88
2023-02-08T18:41:02.736Z,14.93
2023-02-08T18:43:30.515Z,15.30
2023-02-08T18:46:00.847Z,18.17
2023-02-08T18:48:30.348Z,17.48
2023-02-08T18:50:59.147Z,12.63
2023-02-08T18:53:28.431Z,14.68
2023-02-08T18:55:57.377Z,19.30
2023-02-08T18:58:25.802Z,13.30
2023-02-08T19:00:53.864Z,18.42
2023-02-08T19:03:23.240Z,14.07
2023-02-08T19:05:52.342Z,13.52
2023-02-08T19:08:20.538Z,16.10
2023-02-08T19:10:48.376Z,16.00
2023-02-08T19:13:16.676Z,12.27
2023-02-08T19:15:45.552Z,21.23
2023-02-08T19:18:13.459Z,17.40
2023-02-08T19:20:41.212Z,15.80
2023-02-08T19:23:10.321Z,10.35
2023-02-08T19:25:39.965Z,15.10
2023-02-08T19:28:08.394Z,16.05
2023-02-08T19:30:36.235Z,22.02
2023-02-08T19:33:04.271Z,19.23
2023-02-08T19:35:31.997Z,35.30
2023-02-08T19:37:59.789Z,34.30
2023-02-08T19:40:28.920Z,37.95
2023-02-08T19:42:56.695Z,32.38
2023-02-08T19:45:25.150Z,33.70
2023-02-08T19:47:53.325Z,32.78
2023-02-08T19:50:21.129Z,23.63
2023-02-08T19:52:48.893Z,40.92
2023-02-08T19:55:17.381Z,34.40
2023-02-08T19:57:46.526Z,45.15
2023-02-08T20:00:23.328Z,40.60
2023-02-08T20:02:51.816Z,32.80
2023-02-08T20:05:19.595Z,40.40
2023-02-08T20:07:47.338Z,35.25
2023-02-08T20:10:15.084Z,40.83
2023-02-08T20:12:42.863Z,50.80
2023-02-08T20:15:12.041Z,37.13
2023-02-08T20:17:39.948Z,32.95
2023-02-08T20:20:09.234Z,29.73
2023-02-08T20:22:36.959Z,41.03
2023-02-08T20:25:05.033Z,33.85
2023-02-08T20:27:32.821Z,36.22
2023-02-08T20:30:00.598Z,44.00
2023-02-08T20:32:30.071Z,32.40
2023-02-08T20:34:59.682Z,34.55
2023-02-08T20:37:27.750Z,39.35
2023-02-08T20:39:55.685Z,39.72
2023-02-08T20:42:23.724Z,32.28
2023-02-08T20:44:51.828Z,31.08
2023-02-08T20:47:21.708Z,36.10
2023-02-08T20:49:51.404Z,36.28
2023-02-08T20:52:19.678Z,45.88
2023-02-08T20:54:47.802Z,46.40
2023-02-08T20:57:18.090Z,46.10
2023-02-08T20:59:46.360Z,40.60
2023-02-08T21:02:17.943Z,40.50
2023-02-08T21:04:45.823Z,38.72
2023-02-08T21:07:16.194Z,42.55
2023-02-08T21:09:43.940Z,39.33
2023-02-08T21:12:12.000Z,42.17
2023-02-08T21:14:40.481Z,42.38
2023-02-08T21:17:08.270Z,43.25
2023-02-08T21:19:36.036Z,41.35
2023-02-08T21:22:04.205Z,47.72
2023-02-08T21:24:33.795Z,37.17
2023-02-08T21:27:02.030Z,41.88
2023-02-08T21:29:32.553Z,43.05
2023-02-08T21:32:00.475Z,42.75
2023-02-08T21:34:28.496Z,40.08
2023-02-08T21:36:56.424Z,46.33
2023-02-08T21:39:24.246Z,40.90
2023-02-08T21:41:55.450Z,36.88
2023-02-08T21:44:23.270Z,40.85
2023-02-08T21:46:51.073Z,38.83
2023-02-08T21:49:36.090Z,49.17
2023-02-08T21:52:21.524Z,45.83
2023-02-08T21:54:53.442Z,42.05
2023-02-08T21:57:24.660Z,43.05
2023-02-08T21:59:55.045Z,40.45
2023-02-08T22:02:25.785Z,40.40
2023-02-08T22:04:55.009Z,42.47
2023-02-08T22:07:22.983Z,35.03
2023-02-08T22:09:51.067Z,52.63
2023-02-08T22:12:21.680Z,40.50
2023-02-08T22:14:51.803Z,44.88
2023-02-08T22:17:19.728Z,37.35
2023-02-08T22:19:47.677Z,42.05
2023-02-08T22:22:15.528Z,43.47
2023-02-08T22:24:43.396Z,36.83
2023-02-08T22:27:12.752Z,34.90
2023-02-08T22:29:40.581Z,35.40
2023-02-08T22:32:10.988Z,32.25
2023-02-08T22:34:39.127Z,40.35
2023-02-08T22:37:06.985Z,47.90
2023-02-08T22:39:35.851Z,44.45
2023-02-08T22:42:08.183Z,48.58
2023-02-08T22:44:36.135Z,44.97
2023-02-08T22:47:04.704Z,48.95
2023-02-08T22:49:34.138Z,30.42
2023-02-08T22:52:02.453Z,34.15
2023-02-08T22:54:30.169Z,41.72
2023-02-08T22:56:57.991Z,48.38
2023-02-08T22:59:26.087Z,38.58
2023-02-08T23:01:53.913Z,31.48
2023-02-08T23:04:22.308Z,36.28
2023-02-08T23:06:51.742Z,35.78
2023-02-08T23:09:19.525Z,39.58
2023-02-08T23:11:47.730Z,41.70
2023-02-08T23:14:16.161Z,38.30
2023-02-08T23:28:26.078Z,35.88
2023-02-08T23:30:53.868Z,40.60
2023-02-08T23:33:21.657Z,41.92
2023-02-08T23:35:49.479Z,42.30
2023-02-08T23:38:17.327Z,40.92
2023-02-08T23:40:45.270Z,49.45
2023-02-08T23:43:13.259Z,27.85
2023-02-08T23:45:42.441Z,35.70
2023-02-08T23:48:10.200Z,28.65
2023-02-08T23:50:37.998Z,28.88
2023-02-08T23:53:05.751Z,37.90
2023-02-08T23:55:33.552Z,32.30
2023-02-08T23:58:01.293Z,35.75
